أنطاليا, تركيا

06:01 AM EEST on ابریل 19, 2015 (GMT +0300)
Antalya | | Change Station
CLOSE
Current Station
Airport
Location: Antalya,
Elevation: 174 ft
Nearby Weather Stations

Elev 174 ft 36.90 °N, 30.80 °E | Updated 11 minutes ago

Scattered Clouds
غيوم متفرقة
55 °F
Feels Like 55 °F
N
5
ريح متغير ريح from شمال

هذا اليوم
High -- | Low -- °F
--% Chance of Precip.
Yesterday
High -- | Low -- °F
Precip. -- في
6:18 AM 7:34 PM
قمر جدید, 0% visible
الضغط 30.04 في
وضوح الرؤية 6.2 أميال
سحابات غيوم متفرقة 3000 ft
نقطة الندى 52 °F
الرطوبة 88%
Rainfall 0.00 في
عمق الثلج Not available.
الأشعة فوق البنفسجية 0 out of 12
Pollen Not available.
جودة الهواء Not available.
Flu Activity Not available.
METAR LTAI 190250Z 01004KT 9999 SCT030 13/11 Q1017 NOSIG

More Conditions Fewer Conditions

الضغط 30.04 في
وضوح الرؤية 6.2 أميال
سحابات غيوم متفرقة 3000 ft
نقطة الندى 52 °F
الرطوبة 88%
Rainfall 0.00 في
عمق الثلج Not available.
الأشعة فوق البنفسجية 0 out of 12
Pollen Not available.
جودة الهواء Not available.
Flu Activity Not available.
METAR LTAI 190250Z 01004KT 9999 SCT030 13/11 Q1017 NOSIG

More Conditions Fewer Conditions

10-Day Weather Forecast

Almanac

علم الفلك

Apr. 19, 2015 Rise Set
Actual Time
Civil Twilight
Nautical Twilight
Astronomical Twilight
قمر
Length Of Visible Light
طول الیوم
Tomorrow will be .
, % of the Moon is Illuminated

Today's Extremes

Country Highs Country Lows

Community

WunderPhotos

Upload Photos

1,814,657 photos uploaded!

WunderBlogs® & News

Nearby

جودة الهواء

  جودة الهواء AQ Index Pollutant
Not available.

عمق الثلج

Station Depth Elevation

Earthquake Activity

City Distance Mag. Time & Date
Minimum magnitude displayed is 2.5.

Coastal Water Temperatures

مكان درجات الحرارة

Stations

Nearby Weather Stations

Station Location الحرارة رياح باردة نقطة الندى الرطوبة ريح Precip. Elev تحديث Type